sensor_id;sensor_type;location;lat;lon;timestamp;P1;durP1;ratioP1;P2;durP2;ratioP2
23390;SDS011;11868;45.606;5.302;2023-12-20T00:00:55;43.95;;;28.17;;
23390;SDS011;11868;45.606;5.302;2023-12-20T00:03:20;44.90;;;28.60;;
23390;SDS011;11868;45.606;5.302;2023-12-20T00:05:46;43.45;;;28.92;;
23390;SDS011;11868;45.606;5.302;2023-12-20T00:08:12;43.45;;;29.13;;
23390;SDS011;11868;45.606;5.302;2023-12-20T00:10:37;45.88;;;29.38;;
23390;SDS011;11868;45.606;5.302;2023-12-20T00:13:03;51.75;;;34.50;;
23390;SDS011;11868;45.606;5.302;2023-12-20T00:15:28;49.33;;;31.05;;
23390;SDS011;11868;45.606;5.302;2023-12-20T00:17:53;47.97;;;29.95;;
23390;SDS011;11868;45.606;5.302;2023-12-20T00:20:19;50.90;;;31.23;;
23390;SDS011;11868;45.606;5.302;2023-12-20T00:22:44;52.28;;;30.45;;
23390;SDS011;11868;45.606;5.302;2023-12-20T00:25:10;51.38;;;31.80;;
23390;SDS011;11868;45.606;5.302;2023-12-20T00:27:35;61.55;;;37.15;;
23390;SDS011;11868;45.606;5.302;2023-12-20T00:30:01;53.10;;;34.03;;
23390;SDS011;11868;45.606;5.302;2023-12-20T00:32:26;55.72;;;34.03;;
23390;SDS011;11868;45.606;5.302;2023-12-20T00:34:51;50.80;;;32.80;;
23390;SDS011;11868;45.606;5.302;2023-12-20T00:37:17;51.20;;;32.13;;
23390;SDS011;11868;45.606;5.302;2023-12-20T00:39:42;51.85;;;33.63;;
23390;SDS011;11868;45.606;5.302;2023-12-20T00:42:07;51.72;;;32.42;;
23390;SDS011;11868;45.606;5.302;2023-12-20T00:44:33;54.67;;;35.03;;
23390;SDS011;11868;45.606;5.302;2023-12-20T00:46:58;52.38;;;33.50;;
23390;SDS011;11868;45.606;5.302;2023-12-20T00:49:23;51.67;;;32.78;;
23390;SDS011;11868;45.606;5.302;2023-12-20T00:51:49;49.65;;;32.03;;
23390;SDS011;11868;45.606;5.302;2023-12-20T00:54:15;46.97;;;30.88;;
23390;SDS011;11868;45.606;5.302;2023-12-20T00:56:41;44.13;;;30.30;;
23390;SDS011;11868;45.606;5.302;2023-12-20T00:59:06;48.28;;;30.45;;
23390;SDS011;11868;45.606;5.302;2023-12-20T01:01:32;50.28;;;31.25;;
23390;SDS011;11868;45.606;5.302;2023-12-20T01:03:58;45.03;;;29.30;;
23390;SDS011;11868;45.606;5.302;2023-12-20T01:06:23;54.03;;;35.28;;
23390;SDS011;11868;45.606;5.302;2023-12-20T01:08:49;59.58;;;38.60;;
23390;SDS011;11868;45.606;5.302;2023-12-20T01:11:14;59.00;;;38.22;;
23390;SDS011;11868;45.606;5.302;2023-12-20T01:13:39;57.20;;;36.00;;
23390;SDS011;11868;45.606;5.302;2023-12-20T01:16:05;56.25;;;37.63;;
23390;SDS011;11868;45.606;5.302;2023-12-20T01:18:30;48.00;;;32.53;;
23390;SDS011;11868;45.606;5.302;2023-12-20T01:20:56;42.97;;;28.92;;
23390;SDS011;11868;45.606;5.302;2023-12-20T01:23:21;47.10;;;29.92;;
23390;SDS011;11868;45.606;5.302;2023-12-20T01:25:46;42.88;;;28.27;;
23390;SDS011;11868;45.606;5.302;2023-12-20T01:28:12;43.58;;;27.60;;
23390;SDS011;11868;45.606;5.302;2023-12-20T01:30:38;49.72;;;29.80;;
23390;SDS011;11868;45.606;5.302;2023-12-20T01:33:03;43.97;;;28.25;;
23390;SDS011;11868;45.606;5.302;2023-12-20T01:35:28;41.17;;;26.85;;
23390;SDS011;11868;45.606;5.302;2023-12-20T01:37:54;39.97;;;25.92;;
23390;SDS011;11868;45.606;5.302;2023-12-20T01:40:22;39.90;;;26.95;;
23390;SDS011;11868;45.606;5.302;2023-12-20T01:42:57;35.58;;;24.52;;
23390;SDS011;11868;45.606;5.302;2023-12-20T01:45:26;38.83;;;24.08;;
23390;SDS011;11868;45.606;5.302;2023-12-20T01:47:51;37.28;;;25.50;;
23390;SDS011;11868;45.606;5.302;2023-12-20T01:50:17;39.85;;;25.80;;
23390;SDS011;11868;45.606;5.302;2023-12-20T01:52:42;36.20;;;25.10;;
23390;SDS011;11868;45.606;5.302;2023-12-20T01:55:08;37.17;;;25.23;;
23390;SDS011;11868;45.606;5.302;2023-12-20T01:57:38;38.63;;;25.20;;
23390;SDS011;11868;45.606;5.302;2023-12-20T02:00:05;35.70;;;24.70;;
23390;SDS011;11868;45.606;5.302;2023-12-20T02:02:31;35.33;;;23.75;;
23390;SDS011;11868;45.606;5.302;2023-12-20T02:04:56;36.25;;;23.98;;
23390;SDS011;11868;45.606;5.302;2023-12-20T02:07:22;37.10;;;24.40;;
23390;SDS011;11868;45.606;5.302;2023-12-20T02:09:47;38.70;;;24.20;;
23390;SDS011;11868;45.606;5.302;2023-12-20T02:12:13;39.40;;;25.48;;
23390;SDS011;11868;45.606;5.302;2023-12-20T02:14:38;36.60;;;24.13;;
23390;SDS011;11868;45.606;5.302;2023-12-20T02:17:03;36.10;;;23.88;;
23390;SDS011;11868;45.606;5.302;2023-12-20T02:19:29;39.28;;;24.40;;
23390;SDS011;11868;45.606;5.302;2023-12-20T02:22:10;33.35;;;22.17;;
23390;SDS011;11868;45.606;5.302;2023-12-20T02:24:36;49.58;;;32.03;;
23390;SDS011;11868;45.606;5.302;2023-12-20T02:27:01;50.60;;;34.28;;
23390;SDS011;11868;45.606;5.302;2023-12-20T02:29:26;54.60;;;34.45;;
23390;SDS011;11868;45.606;5.302;2023-12-20T02:31:52;51.17;;;32.90;;
23390;SDS011;11868;45.606;5.302;2023-12-20T02:34:17;48.45;;;32.70;;
23390;SDS011;11868;45.606;5.302;2023-12-20T02:36:43;49.92;;;30.58;;
23390;SDS011;11868;45.606;5.302;2023-12-20T02:39:08;47.53;;;31.23;;
23390;SDS011;11868;45.606;5.302;2023-12-20T02:41:33;52.40;;;31.70;;
23390;SDS011;11868;45.606;5.302;2023-12-20T02:43:59;49.58;;;31.42;;
23390;SDS011;11868;45.606;5.302;2023-12-20T02:46:24;44.38;;;29.25;;
23390;SDS011;11868;45.606;5.302;2023-12-20T02:48:49;44.05;;;28.70;;
23390;SDS011;11868;45.606;5.302;2023-12-20T02:51:14;48.67;;;30.85;;
23390;SDS011;11868;45.606;5.302;2023-12-20T02:53:40;46.33;;;30.70;;
23390;SDS011;11868;45.606;5.302;2023-12-20T02:56:05;47.13;;;30.15;;
23390;SDS011;11868;45.606;5.302;2023-12-20T02:58:31;48.33;;;31.00;;
23390;SDS011;11868;45.606;5.302;2023-12-20T03:00:56;48.42;;;31.05;;
23390;SDS011;11868;45.606;5.302;2023-12-20T03:03:21;48.05;;;29.88;;
23390;SDS011;11868;45.606;5.302;2023-12-20T03:05:47;45.88;;;30.85;;
23390;SDS011;11868;45.606;5.302;2023-12-20T03:08:12;47.60;;;30.35;;
23390;SDS011;11868;45.606;5.302;2023-12-20T03:10:37;46.30;;;31.52;;
23390;SDS011;11868;45.606;5.302;2023-12-20T03:13:03;47.80;;;31.15;;
23390;SDS011;11868;45.606;5.302;2023-12-20T03:15:28;44.42;;;30.35;;
23390;SDS011;11868;45.606;5.302;2023-12-20T03:17:53;46.28;;;31.15;;
23390;SDS011;11868;45.606;5.302;2023-12-20T03:20:19;50.15;;;32.58;;
23390;SDS011;11868;45.606;5.302;2023-12-20T03:22:44;46.63;;;30.60;;
23390;SDS011;11868;45.606;5.302;2023-12-20T03:25:09;44.63;;;30.40;;
23390;SDS011;11868;45.606;5.302;2023-12-20T03:27:36;50.05;;;31.60;;
23390;SDS011;11868;45.606;5.302;2023-12-20T03:30:03;55.42;;;32.38;;
23390;SDS011;11868;45.606;5.302;2023-12-20T03:32:29;49.25;;;32.42;;
23390;SDS011;11868;45.606;5.302;2023-12-20T03:34:55;44.92;;;28.60;;
23390;SDS011;11868;45.606;5.302;2023-12-20T03:37:21;45.78;;;30.25;;
23390;SDS011;11868;45.606;5.302;2023-12-20T03:39:46;47.53;;;30.08;;
23390;SDS011;11868;45.606;5.302;2023-12-20T03:42:12;45.78;;;30.27;;
23390;SDS011;11868;45.606;5.302;2023-12-20T03:44:38;47.95;;;31.45;;
23390;SDS011;11868;45.606;5.302;2023-12-20T03:47:04;45.63;;;30.13;;
23390;SDS011;11868;45.606;5.302;2023-12-20T03:49:30;45.63;;;30.02;;
23390;SDS011;11868;45.606;5.302;2023-12-20T03:51:55;41.03;;;28.63;;
23390;SDS011;11868;45.606;5.302;2023-12-20T03:54:21;43.65;;;28.05;;
23390;SDS011;11868;45.606;5.302;2023-12-20T03:56:46;42.38;;;28.33;;
23390;SDS011;11868;45.606;5.302;2023-12-20T03:59:11;42.35;;;29.40;;
23390;SDS011;11868;45.606;5.302;2023-12-20T04:01:37;39.38;;;28.15;;
23390;SDS011;11868;45.606;5.302;2023-12-20T04:04:02;39.28;;;28.25;;
23390;SDS011;11868;45.606;5.302;2023-12-20T04:06:27;40.28;;;28.08;;
23390;SDS011;11868;45.606;5.302;2023-12-20T04:08:53;39.00;;;27.63;;
23390;SDS011;11868;45.606;5.302;2023-12-20T04:11:18;41.20;;;27.15;;
23390;SDS011;11868;45.606;5.302;2023-12-20T04:13:43;41.60;;;28.20;;
23390;SDS011;11868;45.606;5.302;2023-12-20T04:16:09;45.05;;;29.60;;
23390;SDS011;11868;45.606;5.302;2023-12-20T04:18:34;49.78;;;31.67;;
23390;SDS011;11868;45.606;5.302;2023-12-20T04:21:00;45.60;;;30.50;;
23390;SDS011;11868;45.606;5.302;2023-12-20T04:23:25;42.65;;;29.42;;
23390;SDS011;11868;45.606;5.302;2023-12-20T04:25:50;43.10;;;28.50;;
23390;SDS011;11868;45.606;5.302;2023-12-20T04:28:16;41.10;;;28.30;;
23390;SDS011;11868;45.606;5.302;2023-12-20T04:30:41;45.10;;;28.60;;
23390;SDS011;11868;45.606;5.302;2023-12-20T04:33:07;40.55;;;28.85;;
23390;SDS011;11868;45.606;5.302;2023-12-20T04:35:32;39.13;;;27.58;;
23390;SDS011;11868;45.606;5.302;2023-12-20T04:37:57;45.70;;;30.23;;
23390;SDS011;11868;45.606;5.302;2023-12-20T04:40:23;45.38;;;30.85;;
23390;SDS011;11868;45.606;5.302;2023-12-20T04:42:48;40.92;;;28.13;;
23390;SDS011;11868;45.606;5.302;2023-12-20T04:45:13;43.65;;;29.75;;
23390;SDS011;11868;45.606;5.302;2023-12-20T04:47:41;41.25;;;29.33;;
23390;SDS011;11868;45.606;5.302;2023-12-20T04:50:07;39.03;;;27.85;;
23390;SDS011;11868;45.606;5.302;2023-12-20T04:52:33;41.63;;;29.60;;
23390;SDS011;11868;45.606;5.302;2023-12-20T04:54:58;43.35;;;28.90;;
23390;SDS011;11868;45.606;5.302;2023-12-20T04:57:24;42.47;;;29.52;;
23390;SDS011;11868;45.606;5.302;2023-12-20T04:59:49;41.22;;;28.40;;
23390;SDS011;11868;45.606;5.302;2023-12-20T05:02:15;39.45;;;28.58;;
23390;SDS011;11868;45.606;5.302;2023-12-20T05:04:40;41.65;;;29.05;;
23390;SDS011;11868;45.606;5.302;2023-12-20T05:07:06;41.22;;;28.38;;
23390;SDS011;11868;45.606;5.302;2023-12-20T05:09:32;40.00;;;27.88;;
23390;SDS011;11868;45.606;5.302;2023-12-20T05:11:57;42.60;;;27.23;;
23390;SDS011;11868;45.606;5.302;2023-12-20T05:14:22;38.30;;;27.00;;
23390;SDS011;11868;45.606;5.302;2023-12-20T05:16:48;42.75;;;28.55;;
23390;SDS011;11868;45.606;5.302;2023-12-20T05:19:13;40.47;;;28.05;;
23390;SDS011;11868;45.606;5.302;2023-12-20T05:21:39;43.28;;;28.65;;
23390;SDS011;11868;45.606;5.302;2023-12-20T05:24:04;42.95;;;27.60;;
23390;SDS011;11868;45.606;5.302;2023-12-20T05:26:30;42.78;;;27.58;;
23390;SDS011;11868;45.606;5.302;2023-12-20T05:28:55;45.83;;;28.45;;
23390;SDS011;11868;45.606;5.302;2023-12-20T05:31:21;46.40;;;28.33;;
23390;SDS011;11868;45.606;5.302;2023-12-20T05:33:46;47.20;;;28.02;;
23390;SDS011;11868;45.606;5.302;2023-12-20T05:36:11;44.72;;;29.42;;
23390;SDS011;11868;45.606;5.302;2023-12-20T05:38:38;44.72;;;28.50;;
23390;SDS011;11868;45.606;5.302;2023-12-20T05:41:04;47.47;;;28.08;;
23390;SDS011;11868;45.606;5.302;2023-12-20T05:43:29;45.88;;;27.58;;
23390;SDS011;11868;45.606;5.302;2023-12-20T05:45:54;46.15;;;28.65;;
23390;SDS011;11868;45.606;5.302;2023-12-20T05:48:19;47.20;;;27.70;;
23390;SDS011;11868;45.606;5.302;2023-12-20T05:50:45;43.83;;;27.58;;
23390;SDS011;11868;45.606;5.302;2023-12-20T05:53:10;45.80;;;27.70;;
23390;SDS011;11868;45.606;5.302;2023-12-20T05:55:35;47.92;;;28.02;;
23390;SDS011;11868;45.606;5.302;2023-12-20T05:58:01;48.63;;;28.05;;
23390;SDS011;11868;45.606;5.302;2023-12-20T06:00:26;48.13;;;28.52;;
23390;SDS011;11868;45.606;5.302;2023-12-20T06:02:51;46.20;;;28.33;;
23390;SDS011;11868;45.606;5.302;2023-12-20T06:05:17;46.28;;;27.83;;
23390;SDS011;11868;45.606;5.302;2023-12-20T06:07:42;47.08;;;27.77;;
23390;SDS011;11868;45.606;5.302;2023-12-20T06:10:08;45.55;;;26.95;;
23390;SDS011;11868;45.606;5.302;2023-12-20T06:12:33;48.10;;;27.75;;
23390;SDS011;11868;45.606;5.302;2023-12-20T06:15:01;46.58;;;27.65;;
23390;SDS011;11868;45.606;5.302;2023-12-20T06:17:26;49.60;;;28.13;;
23390;SDS011;11868;45.606;5.302;2023-12-20T06:19:52;49.72;;;27.50;;
23390;SDS011;11868;45.606;5.302;2023-12-20T06:22:17;47.20;;;27.10;;
23390;SDS011;11868;45.606;5.302;2023-12-20T06:24:42;45.42;;;27.42;;
23390;SDS011;11868;45.606;5.302;2023-12-20T06:27:08;43.10;;;28.55;;
23390;SDS011;11868;45.606;5.302;2023-12-20T06:29:33;45.90;;;30.02;;
23390;SDS011;11868;45.606;5.302;2023-12-20T06:31:59;40.63;;;26.15;;
23390;SDS011;11868;45.606;5.302;2023-12-20T06:34:25;36.67;;;24.90;;
23390;SDS011;11868;45.606;5.302;2023-12-20T06:36:50;35.22;;;24.42;;
23390;SDS011;11868;45.606;5.302;2023-12-20T06:39:15;34.40;;;23.63;;
23390;SDS011;11868;45.606;5.302;2023-12-20T06:41:41;34.97;;;24.95;;
23390;SDS011;11868;45.606;5.302;2023-12-20T06:44:07;32.08;;;23.20;;
23390;SDS011;11868;45.606;5.302;2023-12-20T06:46:33;33.58;;;24.13;;
23390;SDS011;11868;45.606;5.302;2023-12-20T06:48:58;36.60;;;23.67;;
23390;SDS011;11868;45.606;5.302;2023-12-20T06:51:24;35.40;;;23.65;;
23390;SDS011;11868;45.606;5.302;2023-12-20T06:53:51;35.83;;;24.02;;
23390;SDS011;11868;45.606;5.302;2023-12-20T06:56:17;31.00;;;22.95;;
23390;SDS011;11868;45.606;5.302;2023-12-20T06:58:42;38.55;;;22.90;;
23390;SDS011;11868;45.606;5.302;2023-12-20T07:01:11;41.08;;;27.33;;
23390;SDS011;11868;45.606;5.302;2023-12-20T07:03:40;45.35;;;31.08;;
23390;SDS011;11868;45.606;5.302;2023-12-20T07:06:06;44.15;;;27.55;;
23390;SDS011;11868;45.606;5.302;2023-12-20T07:08:31;27.13;;;18.63;;
23390;SDS011;11868;45.606;5.302;2023-12-20T07:10:56;33.28;;;21.02;;
23390;SDS011;11868;45.606;5.302;2023-12-20T07:13:22;40.30;;;23.52;;
23390;SDS011;11868;45.606;5.302;2023-12-20T07:15:47;36.35;;;21.10;;
23390;SDS011;11868;45.606;5.302;2023-12-20T07:18:13;33.15;;;20.55;;
23390;SDS011;11868;45.606;5.302;2023-12-20T07:20:38;37.30;;;20.50;;
23390;SDS011;11868;45.606;5.302;2023-12-20T07:23:04;36.47;;;21.38;;
23390;SDS011;11868;45.606;5.302;2023-12-20T07:25:29;36.90;;;20.92;;
23390;SDS011;11868;45.606;5.302;2023-12-20T07:27:57;35.80;;;21.95;;
23390;SDS011;11868;45.606;5.302;2023-12-20T07:30:23;38.58;;;22.42;;
23390;SDS011;11868;45.606;5.302;2023-12-20T07:32:48;38.78;;;22.52;;
23390;SDS011;11868;45.606;5.302;2023-12-20T07:35:14;39.50;;;22.10;;
23390;SDS011;11868;45.606;5.302;2023-12-20T07:37:40;37.42;;;21.27;;
23390;SDS011;11868;45.606;5.302;2023-12-20T07:40:06;37.72;;;21.10;;
23390;SDS011;11868;45.606;5.302;2023-12-20T07:42:31;37.35;;;20.35;;
23390;SDS011;11868;45.606;5.302;2023-12-20T07:44:57;39.13;;;20.80;;
23390;SDS011;11868;45.606;5.302;2023-12-20T07:47:23;34.95;;;19.38;;
23390;SDS011;11868;45.606;5.302;2023-12-20T07:49:50;31.75;;;18.65;;
23390;SDS011;11868;45.606;5.302;2023-12-20T07:52:17;29.48;;;17.13;;
23390;SDS011;11868;45.606;5.302;2023-12-20T07:54:43;34.40;;;20.00;;
23390;SDS011;11868;45.606;5.302;2023-12-20T07:57:09;30.20;;;18.08;;
23390;SDS011;11868;45.606;5.302;2023-12-20T07:59:35;35.72;;;18.85;;
23390;SDS011;11868;45.606;5.302;2023-12-20T08:02:01;30.63;;;18.00;;
23390;SDS011;11868;45.606;5.302;2023-12-20T08:04:26;32.90;;;19.20;;
23390;SDS011;11868;45.606;5.302;2023-12-20T08:06:52;42.85;;;23.02;;
23390;SDS011;11868;45.606;5.302;2023-12-20T08:09:17;60.85;;;28.33;;
23390;SDS011;11868;45.606;5.302;2023-12-20T08:11:47;50.47;;;29.83;;
23390;SDS011;11868;45.606;5.302;2023-12-20T08:14:12;50.95;;;29.83;;
23390;SDS011;11868;45.606;5.302;2023-12-20T08:16:38;117.57;;;36.85;;
23390;SDS011;11868;45.606;5.302;2023-12-20T08:19:03;83.45;;;32.70;;
23390;SDS011;11868;45.606;5.302;2023-12-20T08:21:29;101.20;;;34.13;;
23390;SDS011;11868;45.606;5.302;2023-12-20T08:23:54;46.83;;;25.67;;
23390;SDS011;11868;45.606;5.302;2023-12-20T08:26:20;92.30;;;30.45;;
23390;SDS011;11868;45.606;5.302;2023-12-20T08:28:46;93.10;;;29.33;;
23390;SDS011;11868;45.606;5.302;2023-12-20T08:31:15;41.75;;;24.60;;
23390;SDS011;11868;45.606;5.302;2023-12-20T08:33:45;41.17;;;24.23;;
23390;SDS011;11868;45.606;5.302;2023-12-20T08:36:11;42.08;;;24.40;;
23390;SDS011;11868;45.606;5.302;2023-12-20T08:38:37;47.10;;;26.73;;
23390;SDS011;11868;45.606;5.302;2023-12-20T08:41:02;48.53;;;27.70;;
23390;SDS011;11868;45.606;5.302;2023-12-20T08:43:30;72.03;;;30.90;;
23390;SDS011;11868;45.606;5.302;2023-12-20T08:45:55;688.83;;;61.80;;
23390;SDS011;11868;45.606;5.302;2023-12-20T08:48:21;651.88;;;61.97;;
23390;SDS011;11868;45.606;5.302;2023-12-20T08:50:46;186.77;;;40.50;;
23390;SDS011;11868;45.606;5.302;2023-12-20T08:53:13;37.78;;;23.40;;
23390;SDS011;11868;45.606;5.302;2023-12-20T08:55:40;39.88;;;23.52;;
23390;SDS011;11868;45.606;5.302;2023-12-20T08:58:06;40.08;;;23.00;;
23390;SDS011;11868;45.606;5.302;2023-12-20T09:00:32;46.08;;;26.88;;
23390;SDS011;11868;45.606;5.302;2023-12-20T09:02:57;36.47;;;20.23;;
23390;SDS011;11868;45.606;5.302;2023-12-20T09:05:22;33.83;;;20.52;;
23390;SDS011;11868;45.606;5.302;2023-12-20T09:07:47;37.63;;;22.50;;
23390;SDS011;11868;45.606;5.302;2023-12-20T09:10:13;40.63;;;21.55;;
23390;SDS011;11868;45.606;5.302;2023-12-20T09:12:38;27.15;;;17.58;;
23390;SDS011;11868;45.606;5.302;2023-12-20T09:15:05;31.67;;;19.25;;
23390;SDS011;11868;45.606;5.302;2023-12-20T09:17:31;30.73;;;19.35;;
23390;SDS011;11868;45.606;5.302;2023-12-20T09:19:56;30.30;;;19.10;;
23390;SDS011;11868;45.606;5.302;2023-12-20T09:22:22;45.08;;;27.05;;
23390;SDS011;11868;45.606;5.302;2023-12-20T09:24:48;44.60;;;27.02;;
23390;SDS011;11868;45.606;5.302;2023-12-20T09:27:13;41.10;;;25.88;;
23390;SDS011;11868;45.606;5.302;2023-12-20T09:29:38;37.30;;;20.90;;
23390;SDS011;11868;45.606;5.302;2023-12-20T09:32:04;38.45;;;22.52;;
23390;SDS011;11868;45.606;5.302;2023-12-20T09:34:29;39.17;;;23.20;;
23390;SDS011;11868;45.606;5.302;2023-12-20T09:36:55;42.72;;;23.67;;
23390;SDS011;11868;45.606;5.302;2023-12-20T09:39:20;36.10;;;20.42;;
23390;SDS011;11868;45.606;5.302;2023-12-20T09:42:04;39.40;;;22.38;;
23390;SDS011;11868;45.606;5.302;2023-12-20T09:44:31;35.47;;;20.05;;
23390;SDS011;11868;45.606;5.302;2023-12-20T09:46:58;39.10;;;23.75;;
23390;SDS011;11868;45.606;5.302;2023-12-20T09:49:23;39.80;;;25.63;;
23390;SDS011;11868;45.606;5.302;2023-12-20T09:51:50;38.22;;;21.50;;
23390;SDS011;11868;45.606;5.302;2023-12-20T09:54:17;40.88;;;23.13;;
23390;SDS011;11868;45.606;5.302;2023-12-20T09:56:43;37.38;;;22.05;;
23390;SDS011;11868;45.606;5.302;2023-12-20T09:59:08;45.38;;;27.35;;
23390;SDS011;11868;45.606;5.302;2023-12-20T10:01:34;43.75;;;25.42;;
23390;SDS011;11868;45.606;5.302;2023-12-20T10:04:01;44.30;;;23.73;;
23390;SDS011;11868;45.606;5.302;2023-12-20T10:06:33;41.97;;;23.58;;
23390;SDS011;11868;45.606;5.302;2023-12-20T10:08:59;42.38;;;22.67;;
23390;SDS011;11868;45.606;5.302;2023-12-20T10:11:25;40.00;;;22.48;;
23390;SDS011;11868;45.606;5.302;2023-12-20T10:13:50;39.50;;;22.67;;
23390;SDS011;11868;45.606;5.302;2023-12-20T10:16:15;39.05;;;22.23;;
23390;SDS011;11868;45.606;5.302;2023-12-20T10:18:41;38.90;;;22.13;;
23390;SDS011;11868;45.606;5.302;2023-12-20T10:21:06;42.30;;;24.00;;
23390;SDS011;11868;45.606;5.302;2023-12-20T10:23:36;38.70;;;21.02;;
23390;SDS011;11868;45.606;5.302;2023-12-20T10:26:02;38.55;;;22.85;;
23390;SDS011;11868;45.606;5.302;2023-12-20T10:28:28;39.55;;;22.90;;
23390;SDS011;11868;45.606;5.302;2023-12-20T10:30:59;33.35;;;20.42;;
23390;SDS011;11868;45.606;5.302;2023-12-20T10:33:24;34.55;;;19.80;;
23390;SDS011;11868;45.606;5.302;2023-12-20T10:35:51;35.80;;;21.05;;
23390;SDS011;11868;45.606;5.302;2023-12-20T10:38:17;34.78;;;20.95;;
23390;SDS011;11868;45.606;5.302;2023-12-20T10:40:42;35.20;;;20.77;;
23390;SDS011;11868;45.606;5.302;2023-12-20T10:43:10;37.33;;;22.23;;
23390;SDS011;11868;45.606;5.302;2023-12-20T10:45:36;36.50;;;21.55;;
23390;SDS011;11868;45.606;5.302;2023-12-20T10:48:01;33.65;;;20.63;;
23390;SDS011;11868;45.606;5.302;2023-12-20T10:50:28;33.13;;;20.35;;
23390;SDS011;11868;45.606;5.302;2023-12-20T10:52:54;32.05;;;20.98;;
23390;SDS011;11868;45.606;5.302;2023-12-20T10:55:24;34.63;;;21.83;;
23390;SDS011;11868;45.606;5.302;2023-12-20T10:58:23;35.75;;;22.88;;
23390;SDS011;11868;45.606;5.302;2023-12-20T11:00:41;35.05;;;22.02;;
23390;SDS011;11868;45.606;5.302;2023-12-20T11:03:09;34.53;;;22.05;;
23390;SDS011;11868;45.606;5.302;2023-12-20T11:05:38;34.95;;;21.67;;
23390;SDS011;11868;45.606;5.302;2023-12-20T11:11:21;31.38;;;20.70;;
23390;SDS011;11868;45.606;5.302;2023-12-20T11:14:19;29.63;;;20.08;;
23390;SDS011;11868;45.606;5.302;2023-12-20T11:16:47;32.20;;;20.95;;
23390;SDS011;11868;45.606;5.302;2023-12-20T11:19:13;28.73;;;19.50;;
23390;SDS011;11868;45.606;5.302;2023-12-20T11:21:41;31.50;;;19.23;;
23390;SDS011;11868;45.606;5.302;2023-12-20T11:24:06;32.50;;;18.85;;
23390;SDS011;11868;45.606;5.302;2023-12-20T11:26:32;30.35;;;19.10;;
23390;SDS011;11868;45.606;5.302;2023-12-20T11:31:56;27.98;;;18.05;;
23390;SDS011;11868;45.606;5.302;2023-12-20T11:34:22;24.48;;;17.15;;
23390;SDS011;11868;45.606;5.302;2023-12-20T11:36:56;23.52;;;16.58;;
23390;SDS011;11868;45.606;5.302;2023-12-20T11:39:25;25.50;;;16.65;;
23390;SDS011;11868;45.606;5.302;2023-12-20T11:41:53;21.42;;;14.88;;
23390;SDS011;11868;45.606;5.302;2023-12-20T11:44:21;22.13;;;15.68;;
23390;SDS011;11868;45.606;5.302;2023-12-20T11:46:46;20.50;;;14.80;;
23390;SDS011;11868;45.606;5.302;2023-12-20T11:49:12;18.48;;;13.45;;
23390;SDS011;11868;45.606;5.302;2023-12-20T11:51:40;16.13;;;12.35;;
23390;SDS011;11868;45.606;5.302;2023-12-20T11:54:06;15.98;;;11.68;;
23390;SDS011;11868;45.606;5.302;2023-12-20T11:56:32;18.08;;;12.77;;
23390;SDS011;11868;45.606;5.302;2023-12-20T11:58:57;14.32;;;10.77;;
23390;SDS011;11868;45.606;5.302;2023-12-20T12:01:22;15.73;;;11.45;;
23390;SDS011;11868;45.606;5.302;2023-12-20T12:03:48;12.77;;;9.60;;
23390;SDS011;11868;45.606;5.302;2023-12-20T12:06:13;13.57;;;9.85;;
23390;SDS011;11868;45.606;5.302;2023-12-20T12:08:38;14.98;;;9.52;;
23390;SDS011;11868;45.606;5.302;2023-12-20T12:11:04;12.95;;;9.50;;
23390;SDS011;11868;45.606;5.302;2023-12-20T12:13:29;10.75;;;7.72;;
23390;SDS011;11868;45.606;5.302;2023-12-20T12:15:55;8.18;;;6.13;;
23390;SDS011;11868;45.606;5.302;2023-12-20T12:18:20;9.60;;;5.18;;
23390;SDS011;11868;45.606;5.302;2023-12-20T12:20:46;9.10;;;5.57;;
23390;SDS011;11868;45.606;5.302;2023-12-20T12:23:11;6.15;;;4.68;;
23390;SDS011;11868;45.606;5.302;2023-12-20T12:25:36;10.45;;;4.72;;
23390;SDS011;11868;45.606;5.302;2023-12-20T12:28:02;6.63;;;4.38;;
23390;SDS011;11868;45.606;5.302;2023-12-20T12:30:28;7.05;;;4.85;;
23390;SDS011;11868;45.606;5.302;2023-12-20T12:32:53;8.40;;;4.72;;
23390;SDS011;11868;45.606;5.302;2023-12-20T12:35:19;6.82;;;4.38;;
23390;SDS011;11868;45.606;5.302;2023-12-20T12:37:45;6.65;;;3.97;;
23390;SDS011;11868;45.606;5.302;2023-12-20T12:40:11;6.32;;;3.88;;
23390;SDS011;11868;45.606;5.302;2023-12-20T12:42:37;5.97;;;3.92;;
23390;SDS011;11868;45.606;5.302;2023-12-20T12:45:03;6.80;;;4.28;;
23390;SDS011;11868;45.606;5.302;2023-12-20T12:47:29;6.03;;;3.05;;
23390;SDS011;11868;45.606;5.302;2023-12-20T12:49:54;4.72;;;3.50;;
23390;SDS011;11868;45.606;5.302;2023-12-20T12:52:20;8.57;;;4.53;;
23390;SDS011;11868;45.606;5.302;2023-12-20T12:54:45;6.85;;;3.58;;
23390;SDS011;11868;45.606;5.302;2023-12-20T12:57:11;8.48;;;4.53;;
23390;SDS011;11868;45.606;5.302;2023-12-20T12:59:37;8.15;;;4.15;;
23390;SDS011;11868;45.606;5.302;2023-12-20T13:02:02;9.02;;;4.10;;
23390;SDS011;11868;45.606;5.302;2023-12-20T13:04:28;5.32;;;3.28;;
23390;SDS011;11868;45.606;5.302;2023-12-20T13:06:54;8.82;;;4.15;;
23390;SDS011;11868;45.606;5.302;2023-12-20T13:09:20;7.65;;;3.95;;
23390;SDS011;11868;45.606;5.302;2023-12-20T13:11:45;7.85;;;4.32;;
23390;SDS011;11868;45.606;5.302;2023-12-20T13:14:10;9.95;;;3.72;;
23390;SDS011;11868;45.606;5.302;2023-12-20T13:16:40;9.82;;;3.70;;
23390;SDS011;11868;45.606;5.302;2023-12-20T13:19:06;8.40;;;4.00;;
23390;SDS011;11868;45.606;5.302;2023-12-20T13:21:31;10.30;;;4.53;;
23390;SDS011;11868;45.606;5.302;2023-12-20T13:23:56;9.05;;;4.18;;
23390;SDS011;11868;45.606;5.302;2023-12-20T13:26:22;10.40;;;3.97;;
23390;SDS011;11868;45.606;5.302;2023-12-20T13:28:47;8.40;;;3.78;;
23390;SDS011;11868;45.606;5.302;2023-12-20T13:31:12;7.78;;;4.03;;
23390;SDS011;11868;45.606;5.302;2023-12-20T13:33:38;6.82;;;3.95;;
23390;SDS011;11868;45.606;5.302;2023-12-20T13:36:04;9.05;;;3.88;;
23390;SDS011;11868;45.606;5.302;2023-12-20T13:38:30;17.20;;;5.90;;
23390;SDS011;11868;45.606;5.302;2023-12-20T13:40:55;12.48;;;7.20;;
23390;SDS011;11868;45.606;5.302;2023-12-20T13:43:20;8.13;;;3.85;;
23390;SDS011;11868;45.606;5.302;2023-12-20T13:45:47;5.60;;;3.78;;
23390;SDS011;11868;45.606;5.302;2023-12-20T13:48:13;9.25;;;3.30;;
23390;SDS011;11868;45.606;5.302;2023-12-20T13:50:38;7.18;;;3.28;;
23390;SDS011;11868;45.606;5.302;2023-12-20T13:53:03;7.53;;;3.35;;
23390;SDS011;11868;45.606;5.302;2023-12-20T13:55:29;10.45;;;4.13;;
23390;SDS011;11868;45.606;5.302;2023-12-20T13:57:55;12.27;;;4.38;;
23390;SDS011;11868;45.606;5.302;2023-12-20T14:00:21;6.10;;;3.20;;
23390;SDS011;11868;45.606;5.302;2023-12-20T14:02:47;7.28;;;3.35;;
23390;SDS011;11868;45.606;5.302;2023-12-20T14:05:13;5.72;;;3.28;;
23390;SDS011;11868;45.606;5.302;2023-12-20T14:07:41;7.38;;;3.13;;
23390;SDS011;11868;45.606;5.302;2023-12-20T14:10:09;7.57;;;3.85;;
23390;SDS011;11868;45.606;5.302;2023-12-20T14:12:36;8.05;;;3.35;;
23390;SDS011;11868;45.606;5.302;2023-12-20T14:15:03;8.90;;;3.55;;
23390;SDS011;11868;45.606;5.302;2023-12-20T14:17:28;7.60;;;3.22;;
23390;SDS011;11868;45.606;5.302;2023-12-20T14:19:54;12.50;;;3.30;;
23390;SDS011;11868;45.606;5.302;2023-12-20T14:22:19;10.27;;;3.30;;
23390;SDS011;11868;45.606;5.302;2023-12-20T14:24:45;7.93;;;3.30;;